sensor_id;sensor_type;location;lat;lon;timestamp;temperature;humidity
49549;DHT22;35450;44.518;7.466;2023-04-24T00:02:43;14.40;98.30
49549;DHT22;35450;44.518;7.466;2023-04-24T00:05:51;14.40;98.10
49549;DHT22;35450;44.518;7.466;2023-04-24T00:08:55;14.40;97.90
49549;DHT22;35450;44.518;7.466;2023-04-24T00:11:59;14.40;97.90
49549;DHT22;35450;44.518;7.466;2023-04-24T00:15:04;14.40;97.90
49549;DHT22;35450;44.518;7.466;2023-04-24T00:18:08;14.40;97.80
49549;DHT22;35450;44.518;7.466;2023-04-24T00:21:12;14.40;97.90
49549;DHT22;35450;44.518;7.466;2023-04-24T00:24:17;14.30;98.10
49549;DHT22;35450;44.518;7.466;2023-04-24T00:27:21;14.40;98.30
49549;DHT22;35450;44.518;7.466;2023-04-24T00:30:25;14.40;98.40
49549;DHT22;35450;44.518;7.466;2023-04-24T00:33:29;14.40;98.50
49549;DHT22;35450;44.518;7.466;2023-04-24T00:36:32;14.40;98.50
49549;DHT22;35450;44.518;7.466;2023-04-24T00:39:36;14.40;98.50
49549;DHT22;35450;44.518;7.466;2023-04-24T00:42:41;14.40;98.60
49549;DHT22;35450;44.518;7.466;2023-04-24T00:45:46;14.40;98.50
49549;DHT22;35450;44.518;7.466;2023-04-24T00:48:50;14.30;98.60
49549;DHT22;35450;44.518;7.466;2023-04-24T00:51:54;14.30;98.70
49549;DHT22;35450;44.518;7.466;2023-04-24T00:54:58;14.20;98.40
49549;DHT22;35450;44.518;7.466;2023-04-24T00:58:03;14.20;98.80
49549;DHT22;35450;44.518;7.466;2023-04-24T01:01:07;14.20;99.20
49549;DHT22;35450;44.518;7.466;2023-04-24T01:04:12;14.10;99.20
49549;DHT22;35450;44.518;7.466;2023-04-24T01:07:21;14.20;99.00
49549;DHT22;35450;44.518;7.466;2023-04-24T01:10:27;14.20;99.20
49549;DHT22;35450;44.518;7.466;2023-04-24T01:13:32;14.20;99.40
49549;DHT22;35450;44.518;7.466;2023-04-24T01:16:36;14.20;99.30
49549;DHT22;35450;44.518;7.466;2023-04-24T01:19:41;14.20;99.40
49549;DHT22;35450;44.518;7.466;2023-04-24T01:22:48;14.30;99.30
49549;DHT22;35450;44.518;7.466;2023-04-24T01:25:52;14.30;99.20
49549;DHT22;35450;44.518;7.466;2023-04-24T01:28:56;14.40;99.00
49549;DHT22;35450;44.518;7.466;2023-04-24T01:32:00;14.40;98.70
49549;DHT22;35450;44.518;7.466;2023-04-24T01:35:05;14.30;98.80
49549;DHT22;35450;44.518;7.466;2023-04-24T01:38:09;14.40;98.70
49549;DHT22;35450;44.518;7.466;2023-04-24T01:41:13;14.30;98.50
49549;DHT22;35450;44.518;7.466;2023-04-24T01:44:18;14.30;98.30
49549;DHT22;35450;44.518;7.466;2023-04-24T01:47:23;14.30;98.30
49549;DHT22;35450;44.518;7.466;2023-04-24T01:50:27;14.20;98.40
49549;DHT22;35450;44.518;7.466;2023-04-24T01:53:32;14.20;98.40
49549;DHT22;35450;44.518;7.466;2023-04-24T01:56:36;14.10;98.70
49549;DHT22;35450;44.518;7.466;2023-04-24T01:59:43;14.10;98.80
49549;DHT22;35450;44.518;7.466;2023-04-24T02:02:47;14.20;98.80
49549;DHT22;35450;44.518;7.466;2023-04-24T02:05:51;14.20;98.50
49549;DHT22;35450;44.518;7.466;2023-04-24T02:08:55;14.30;98.50
49549;DHT22;35450;44.518;7.466;2023-04-24T02:11:59;14.20;98.10
49549;DHT22;35450;44.518;7.466;2023-04-24T02:15:04;14.20;98.00
49549;DHT22;35450;44.518;7.466;2023-04-24T02:18:08;13.90;98.00
49549;DHT22;35450;44.518;7.466;2023-04-24T02:21:12;13.80;98.50
49549;DHT22;35450;44.518;7.466;2023-04-24T02:24:16;13.70;98.60
49549;DHT22;35450;44.518;7.466;2023-04-24T02:27:20;13.60;99.00
49549;DHT22;35450;44.518;7.466;2023-04-24T02:30:24;13.60;98.80
49549;DHT22;35450;44.518;7.466;2023-04-24T02:33:28;13.60;98.80
49549;DHT22;35450;44.518;7.466;2023-04-24T02:36:32;13.70;98.40
49549;DHT22;35450;44.518;7.466;2023-04-24T02:39:36;13.70;98.50
49549;DHT22;35450;44.518;7.466;2023-04-24T02:42:40;13.60;98.50
49549;DHT22;35450;44.518;7.466;2023-04-24T02:45:44;13.60;98.30
49549;DHT22;35450;44.518;7.466;2023-04-24T02:48:48;13.40;98.00
49549;DHT22;35450;44.518;7.466;2023-04-24T02:51:52;13.20;98.40
49549;DHT22;35450;44.518;7.466;2023-04-24T02:54:56;13.30;98.50
49549;DHT22;35450;44.518;7.466;2023-04-24T02:58:00;13.20;98.70
49549;DHT22;35450;44.518;7.466;2023-04-24T03:01:04;13.10;98.60
49549;DHT22;35450;44.518;7.466;2023-04-24T03:04:09;13.00;98.90
49549;DHT22;35450;44.518;7.466;2023-04-24T03:07:14;12.90;99.00
49549;DHT22;35450;44.518;7.466;2023-04-24T03:10:18;12.90;99.20
49549;DHT22;35450;44.518;7.466;2023-04-24T03:13:22;12.80;99.30
49549;DHT22;35450;44.518;7.466;2023-04-24T03:16:26;12.80;99.20
49549;DHT22;35450;44.518;7.466;2023-04-24T03:19:32;12.80;98.80
49549;DHT22;35450;44.518;7.466;2023-04-24T03:22:42;12.70;98.10
49549;DHT22;35450;44.518;7.466;2023-04-24T03:25:46;12.60;98.80
49549;DHT22;35450;44.518;7.466;2023-04-24T03:28:53;12.70;98.80
49549;DHT22;35450;44.518;7.466;2023-04-24T03:31:57;12.60;97.60
49549;DHT22;35450;44.518;7.466;2023-04-24T03:35:01;12.60;97.50
49549;DHT22;35450;44.518;7.466;2023-04-24T03:38:05;12.60;97.10
49549;DHT22;35450;44.518;7.466;2023-04-24T03:41:28;12.50;95.80
49549;DHT22;35450;44.518;7.466;2023-04-24T03:44:39;12.40;96.10
49549;DHT22;35450;44.518;7.466;2023-04-24T03:47:43;12.40;95.70
49549;DHT22;35450;44.518;7.466;2023-04-24T03:50:47;12.40;95.60
49549;DHT22;35450;44.518;7.466;2023-04-24T03:53:52;12.40;95.70
49549;DHT22;35450;44.518;7.466;2023-04-24T03:56:59;12.40;95.90
49549;DHT22;35450;44.518;7.466;2023-04-24T04:00:05;12.40;95.90
49549;DHT22;35450;44.518;7.466;2023-04-24T04:03:18;12.40;96.20
49549;DHT22;35450;44.518;7.466;2023-04-24T04:06:23;12.20;95.40
49549;DHT22;35450;44.518;7.466;2023-04-24T04:09:29;12.20;95.20
49549;DHT22;35450;44.518;7.466;2023-04-24T04:12:33;12.10;94.70
49549;DHT22;35450;44.518;7.466;2023-04-24T04:15:37;12.10;94.50
49549;DHT22;35450;44.518;7.466;2023-04-24T04:18:41;12.00;94.70
49549;DHT22;35450;44.518;7.466;2023-04-24T04:21:45;12.00;94.50
49549;DHT22;35450;44.518;7.466;2023-04-24T04:24:58;11.90;94.60
49549;DHT22;35450;44.518;7.466;2023-04-24T04:28:04;12.00;95.10
49549;DHT22;35450;44.518;7.466;2023-04-24T04:31:09;12.10;95.40
49549;DHT22;35450;44.518;7.466;2023-04-24T04:34:13;12.00;95.30
49549;DHT22;35450;44.518;7.466;2023-04-24T04:37:19;12.00;95.60
49549;DHT22;35450;44.518;7.466;2023-04-24T04:40:43;11.90;95.60
49549;DHT22;35450;44.518;7.466;2023-04-24T04:43:49;11.90;95.40
49549;DHT22;35450;44.518;7.466;2023-04-24T04:46:54;11.90;95.20
49549;DHT22;35450;44.518;7.466;2023-04-24T04:50:09;12.00;95.40
49549;DHT22;35450;44.518;7.466;2023-04-24T04:53:14;12.00;95.00
49549;DHT22;35450;44.518;7.466;2023-04-24T04:56:19;12.00;95.30
49549;DHT22;35450;44.518;7.466;2023-04-24T04:59:24;12.00;95.50
49549;DHT22;35450;44.518;7.466;2023-04-24T05:02:34;12.00;95.40
49549;DHT22;35450;44.518;7.466;2023-04-24T05:05:37;12.10;95.90
49549;DHT22;35450;44.518;7.466;2023-04-24T05:08:46;12.20;96.30
49549;DHT22;35450;44.518;7.466;2023-04-24T05:12:02;12.30;96.70
49549;DHT22;35450;44.518;7.466;2023-04-24T05:15:10;12.40;96.60
49549;DHT22;35450;44.518;7.466;2023-04-24T05:18:14;12.40;96.60
49549;DHT22;35450;44.518;7.466;2023-04-24T05:21:19;12.40;96.70
49549;DHT22;35450;44.518;7.466;2023-04-24T05:24:27;12.50;97.00
49549;DHT22;35450;44.518;7.466;2023-04-24T05:27:37;12.50;96.70
49549;DHT22;35450;44.518;7.466;2023-04-24T05:30:46;12.50;96.40
49549;DHT22;35450;44.518;7.466;2023-04-24T05:33:51;12.50;95.70
49549;DHT22;35450;44.518;7.466;2023-04-24T05:36:55;12.50;94.30
49549;DHT22;35450;44.518;7.466;2023-04-24T05:39:59;12.60;94.70
49549;DHT22;35450;44.518;7.466;2023-04-24T05:43:03;12.50;94.90
49549;DHT22;35450;44.518;7.466;2023-04-24T05:46:07;12.50;94.40
49549;DHT22;35450;44.518;7.466;2023-04-24T05:49:11;12.50;94.40
49549;DHT22;35450;44.518;7.466;2023-04-24T05:52:15;12.50;94.10
49549;DHT22;35450;44.518;7.466;2023-04-24T05:55:20;12.50;93.90
49549;DHT22;35450;44.518;7.466;2023-04-24T05:58:24;12.60;94.30
49549;DHT22;35450;44.518;7.466;2023-04-24T06:01:28;12.60;94.20
49549;DHT22;35450;44.518;7.466;2023-04-24T06:04:43;12.70;94.30
49549;DHT22;35450;44.518;7.466;2023-04-24T06:07:47;12.50;95.10
49549;DHT22;35450;44.518;7.466;2023-04-24T06:10:52;12.50;95.20
49549;DHT22;35450;44.518;7.466;2023-04-24T06:13:58;12.60;94.30
49549;DHT22;35450;44.518;7.466;2023-04-24T06:17:15;12.70;93.60
49549;DHT22;35450;44.518;7.466;2023-04-24T06:20:20;12.80;93.50
49549;DHT22;35450;44.518;7.466;2023-04-24T06:23:24;12.80;94.10
49549;DHT22;35450;44.518;7.466;2023-04-24T06:26:28;12.90;92.70
49549;DHT22;35450;44.518;7.466;2023-04-24T06:29:33;13.00;93.00
49549;DHT22;35450;44.518;7.466;2023-04-24T06:32:37;13.10;93.10
49549;DHT22;35450;44.518;7.466;2023-04-24T06:35:41;13.20;92.70
49549;DHT22;35450;44.518;7.466;2023-04-24T06:38:45;13.30;92.20
49549;DHT22;35450;44.518;7.466;2023-04-24T06:41:50;13.30;92.20
49549;DHT22;35450;44.518;7.466;2023-04-24T06:44:57;13.40;91.80
49549;DHT22;35450;44.518;7.466;2023-04-24T06:48:02;13.40;91.80
49549;DHT22;35450;44.518;7.466;2023-04-24T06:51:06;13.50;90.90
49549;DHT22;35450;44.518;7.466;2023-04-24T06:54:10;13.50;91.10
49549;DHT22;35450;44.518;7.466;2023-04-24T06:57:14;13.60;90.70
49549;DHT22;35450;44.518;7.466;2023-04-24T07:00:20;13.70;90.50
49549;DHT22;35450;44.518;7.466;2023-04-24T07:03:24;13.70;90.50
49549;DHT22;35450;44.518;7.466;2023-04-24T07:06:28;13.80;90.40
49549;DHT22;35450;44.518;7.466;2023-04-24T07:09:34;13.80;90.20
49549;DHT22;35450;44.518;7.466;2023-04-24T07:12:42;13.90;91.00
49549;DHT22;35450;44.518;7.466;2023-04-24T07:15:46;14.00;90.90
49549;DHT22;35450;44.518;7.466;2023-04-24T07:18:49;14.00;90.90
49549;DHT22;35450;44.518;7.466;2023-04-24T07:21:53;14.00;91.20
49549;DHT22;35450;44.518;7.466;2023-04-24T07:24:59;14.10;91.20
49549;DHT22;35450;44.518;7.466;2023-04-24T07:28:02;14.10;92.00
49549;DHT22;35450;44.518;7.466;2023-04-24T07:31:08;14.20;92.10
49549;DHT22;35450;44.518;7.466;2023-04-24T07:34:12;14.30;92.30
49549;DHT22;35450;44.518;7.466;2023-04-24T07:37:16;14.40;92.30
49549;DHT22;35450;44.518;7.466;2023-04-24T07:40:21;14.40;92.40
49549;DHT22;35450;44.518;7.466;2023-04-24T07:43:25;14.50;91.80
49549;DHT22;35450;44.518;7.466;2023-04-24T07:46:30;14.50;92.50
49549;DHT22;35450;44.518;7.466;2023-04-24T07:49:34;14.60;92.40
49549;DHT22;35450;44.518;7.466;2023-04-24T07:52:38;14.60;91.90
49549;DHT22;35450;44.518;7.466;2023-04-24T07:55:43;14.60;92.00
49549;DHT22;35450;44.518;7.466;2023-04-24T07:58:48;14.70;91.10
49549;DHT22;35450;44.518;7.466;2023-04-24T08:01:51;14.70;91.00
49549;DHT22;35450;44.518;7.466;2023-04-24T08:04:55;14.70;90.80
49549;DHT22;35450;44.518;7.466;2023-04-24T08:08:00;14.70;91.00
49549;DHT22;35450;44.518;7.466;2023-04-24T08:11:04;14.80;91.40
49549;DHT22;35450;44.518;7.466;2023-04-24T08:14:08;14.80;91.00
49549;DHT22;35450;44.518;7.466;2023-04-24T08:17:12;14.90;89.70
49549;DHT22;35450;44.518;7.466;2023-04-24T08:20:16;14.90;89.80
49549;DHT22;35450;44.518;7.466;2023-04-24T08:23:20;14.90;90.10
49549;DHT22;35450;44.518;7.466;2023-04-24T08:26:24;14.90;90.50
49549;DHT22;35450;44.518;7.466;2023-04-24T08:29:28;15.00;90.60
49549;DHT22;35450;44.518;7.466;2023-04-24T08:32:32;15.10;90.80
49549;DHT22;35450;44.518;7.466;2023-04-24T08:35:36;15.20;90.60
49549;DHT22;35450;44.518;7.466;2023-04-24T08:38:42;15.30;90.80
49549;DHT22;35450;44.518;7.466;2023-04-24T08:41:48;15.40;91.10
49549;DHT22;35450;44.518;7.466;2023-04-24T08:44:52;15.40;90.90
49549;DHT22;35450;44.518;7.466;2023-04-24T08:47:57;15.50;91.10
49549;DHT22;35450;44.518;7.466;2023-04-24T08:51:02;15.60;91.40
49549;DHT22;35450;44.518;7.466;2023-04-24T08:54:09;15.60;90.90
49549;DHT22;35450;44.518;7.466;2023-04-24T08:57:14;15.70;91.20
49549;DHT22;35450;44.518;7.466;2023-04-24T09:00:20;15.80;91.30
49549;DHT22;35450;44.518;7.466;2023-04-24T09:03:27;15.80;91.20
49549;DHT22;35450;44.518;7.466;2023-04-24T09:06:32;15.90;91.70
49549;DHT22;35450;44.518;7.466;2023-04-24T09:09:38;15.90;91.20
49549;DHT22;35450;44.518;7.466;2023-04-24T09:12:44;15.90;92.00
49549;DHT22;35450;44.518;7.466;2023-04-24T09:15:48;16.00;91.40
49549;DHT22;35450;44.518;7.466;2023-04-24T09:18:52;16.00;92.00
49549;DHT22;35450;44.518;7.466;2023-04-24T09:21:56;16.10;92.10
49549;DHT22;35450;44.518;7.466;2023-04-24T09:25:05;16.10;92.00
49549;DHT22;35450;44.518;7.466;2023-04-24T09:28:10;16.20;91.90
49549;DHT22;35450;44.518;7.466;2023-04-24T09:31:17;16.30;91.50
49549;DHT22;35450;44.518;7.466;2023-04-24T09:34:23;16.30;90.70
49549;DHT22;35450;44.518;7.466;2023-04-24T09:37:29;16.40;91.80
49549;DHT22;35450;44.518;7.466;2023-04-24T09:40:34;16.50;91.20
49549;DHT22;35450;44.518;7.466;2023-04-24T09:43:39;16.50;92.80
49549;DHT22;35450;44.518;7.466;2023-04-24T09:46:45;16.60;92.00
49549;DHT22;35450;44.518;7.466;2023-04-24T09:49:57;16.60;90.20
49549;DHT22;35450;44.518;7.466;2023-04-24T09:53:04;16.70;90.20
49549;DHT22;35450;44.518;7.466;2023-04-24T09:56:09;16.70;88.40
49549;DHT22;35450;44.518;7.466;2023-04-24T09:59:15;16.90;87.60
49549;DHT22;35450;44.518;7.466;2023-04-24T10:02:20;16.90;87.70
49549;DHT22;35450;44.518;7.466;2023-04-24T10:05:27;17.00;84.70
49549;DHT22;35450;44.518;7.466;2023-04-24T10:08:35;17.00;83.50
49549;DHT22;35450;44.518;7.466;2023-04-24T10:11:43;17.00;84.00
49549;DHT22;35450;44.518;7.466;2023-04-24T10:14:50;17.00;82.60
49549;DHT22;35450;44.518;7.466;2023-04-24T10:17:58;17.10;66.30
49549;DHT22;35450;44.518;7.466;2023-04-24T10:21:02;17.30;72.40
49549;DHT22;35450;44.518;7.466;2023-04-24T10:24:07;17.40;69.60
49549;DHT22;35450;44.518;7.466;2023-04-24T10:27:11;17.40;68.10
49549;DHT22;35450;44.518;7.466;2023-04-24T10:30:17;17.50;67.90
49549;DHT22;35450;44.518;7.466;2023-04-24T10:33:23;17.50;69.30
49549;DHT22;35450;44.518;7.466;2023-04-24T10:36:28;17.60;64.10
49549;DHT22;35450;44.518;7.466;2023-04-24T10:39:36;17.60;67.10
49549;DHT22;35450;44.518;7.466;2023-04-24T10:42:41;17.50;65.30
49549;DHT22;35450;44.518;7.466;2023-04-24T10:46:03;17.60;63.00
49549;DHT22;35450;44.518;7.466;2023-04-24T10:49:08;17.60;64.00
49549;DHT22;35450;44.518;7.466;2023-04-24T10:52:14;17.60;65.60
49549;DHT22;35450;44.518;7.466;2023-04-24T10:58:52;17.80;65.50
49549;DHT22;35450;44.518;7.466;2023-04-24T11:01:57;17.90;66.20
49549;DHT22;35450;44.518;7.466;2023-04-24T11:05:03;18.00;65.80
49549;DHT22;35450;44.518;7.466;2023-04-24T11:08:15;18.00;65.80
49549;DHT22;35450;44.518;7.466;2023-04-24T11:11:20;18.00;64.50
49549;DHT22;35450;44.518;7.466;2023-04-24T11:14:25;18.10;65.80
49549;DHT22;35450;44.518;7.466;2023-04-24T11:20:35;18.20;62.90
49549;DHT22;35450;44.518;7.466;2023-04-24T11:23:39;18.30;61.10
49549;DHT22;35450;44.518;7.466;2023-04-24T11:26:44;18.30;60.50
49549;DHT22;35450;44.518;7.466;2023-04-24T11:30:10;18.30;61.00
49549;DHT22;35450;44.518;7.466;2023-04-24T11:33:19;18.40;60.50
49549;DHT22;35450;44.518;7.466;2023-04-24T11:36:24;18.40;62.60
49549;DHT22;35450;44.518;7.466;2023-04-24T11:39:36;18.50;61.00
49549;DHT22;35450;44.518;7.466;2023-04-24T11:42:42;18.60;61.10
49549;DHT22;35450;44.518;7.466;2023-04-24T11:45:49;18.70;59.80
49549;DHT22;35450;44.518;7.466;2023-04-24T11:48:53;18.80;60.00
49549;DHT22;35450;44.518;7.466;2023-04-24T11:51:57;18.80;59.30
49549;DHT22;35450;44.518;7.466;2023-04-24T11:58:21;18.70;57.90
49549;DHT22;35450;44.518;7.466;2023-04-24T12:01:25;18.80;57.70
49549;DHT22;35450;44.518;7.466;2023-04-24T12:04:38;18.80;56.70
49549;DHT22;35450;44.518;7.466;2023-04-24T12:07:43;18.80;56.10
49549;DHT22;35450;44.518;7.466;2023-04-24T12:10:51;19.00;56.20
49549;DHT22;35450;44.518;7.466;2023-04-24T12:13:55;19.20;54.50
49549;DHT22;35450;44.518;7.466;2023-04-24T12:16:59;19.20;54.00
49549;DHT22;35450;44.518;7.466;2023-04-24T12:20:07;19.20;54.30
49549;DHT22;35450;44.518;7.466;2023-04-24T12:23:12;19.20;55.70
49549;DHT22;35450;44.518;7.466;2023-04-24T12:26:20;19.20;56.60
49549;DHT22;35450;44.518;7.466;2023-04-24T12:29:25;19.30;56.30
49549;DHT22;35450;44.518;7.466;2023-04-24T12:32:29;19.20;55.50
49549;DHT22;35450;44.518;7.466;2023-04-24T12:35:33;19.30;53.90
49549;DHT22;35450;44.518;7.466;2023-04-24T12:38:39;19.30;54.30
49549;DHT22;35450;44.518;7.466;2023-04-24T12:41:56;19.60;53.80
49549;DHT22;35450;44.518;7.466;2023-04-24T12:45:06;19.60;53.40
49549;DHT22;35450;44.518;7.466;2023-04-24T12:48:11;19.50;52.90
49549;DHT22;35450;44.518;7.466;2023-04-24T12:51:15;19.40;52.80
49549;DHT22;35450;44.518;7.466;2023-04-24T12:54:19;19.40;53.80
49549;DHT22;35450;44.518;7.466;2023-04-24T12:57:24;19.40;52.70
49549;DHT22;35450;44.518;7.466;2023-04-24T13:00:28;19.40;52.10
49549;DHT22;35450;44.518;7.466;2023-04-24T13:03:32;19.40;53.40
49549;DHT22;35450;44.518;7.466;2023-04-24T13:06:36;19.40;53.10
49549;DHT22;35450;44.518;7.466;2023-04-24T13:09:42;19.50;50.20
49549;DHT22;35450;44.518;7.466;2023-04-24T13:12:46;19.60;50.10
49549;DHT22;35450;44.518;7.466;2023-04-24T13:15:50;19.90;49.90
49549;DHT22;35450;44.518;7.466;2023-04-24T13:18:54;20.10;51.40
49549;DHT22;35450;44.518;7.466;2023-04-24T13:21:58;20.10;48.90
49549;DHT22;35450;44.518;7.466;2023-04-24T13:25:03;20.10;49.20
49549;DHT22;35450;44.518;7.466;2023-04-24T13:28:07;20.00;48.20
49549;DHT22;35450;44.518;7.466;2023-04-24T13:31:11;19.90;48.40
49549;DHT22;35450;44.518;7.466;2023-04-24T13:34:15;20.00;50.80
49549;DHT22;35450;44.518;7.466;2023-04-24T13:37:19;20.40;49.90
49549;DHT22;35450;44.518;7.466;2023-04-24T13:40:23;20.40;49.30
49549;DHT22;35450;44.518;7.466;2023-04-24T13:43:27;20.30;48.00
49549;DHT22;35450;44.518;7.466;2023-04-24T13:46:31;20.30;47.10
49549;DHT22;35450;44.518;7.466;2023-04-24T13:49:35;20.20;46.20
49549;DHT22;35450;44.518;7.466;2023-04-24T13:52:39;20.10;46.10
49549;DHT22;35450;44.518;7.466;2023-04-24T13:55:43;20.10;43.90
49549;DHT22;35450;44.518;7.466;2023-04-24T13:58:47;20.20;42.70
49549;DHT22;35450;44.518;7.466;2023-04-24T14:01:51;20.10;42.40
49549;DHT22;35450;44.518;7.466;2023-04-24T14:04:55;20.00;43.40
49549;DHT22;35450;44.518;7.466;2023-04-24T14:07:59;20.10;43.30
49549;DHT22;35450;44.518;7.466;2023-04-24T14:11:04;20.20;38.10
49549;DHT22;35450;44.518;7.466;2023-04-24T14:14:08;20.30;40.50
49549;DHT22;35450;44.518;7.466;2023-04-24T14:17:12;20.40;37.20
49549;DHT22;35450;44.518;7.466;2023-04-24T14:20:16;20.40;35.20
49549;DHT22;35450;44.518;7.466;2023-04-24T14:23:20;20.50;37.60
49549;DHT22;35450;44.518;7.466;2023-04-24T14:26:24;20.40;38.30
49549;DHT22;35450;44.518;7.466;2023-04-24T14:29:28;20.70;36.20
49549;DHT22;35450;44.518;7.466;2023-04-24T14:32:32;20.70;36.40
49549;DHT22;35450;44.518;7.466;2023-04-24T14:35:36;20.90;35.90
49549;DHT22;35450;44.518;7.466;2023-04-24T14:38:40;20.80;35.30
49549;DHT22;35450;44.518;7.466;2023-04-24T14:41:44;20.90;35.10
49549;DHT22;35450;44.518;7.466;2023-04-24T14:44:49;20.90;35.60
49549;DHT22;35450;44.518;7.466;2023-04-24T14:47:53;21.00;35.90
49549;DHT22;35450;44.518;7.466;2023-04-24T14:50:58;21.00;34.80
49549;DHT22;35450;44.518;7.466;2023-04-24T14:54:02;21.10;36.10
49549;DHT22;35450;44.518;7.466;2023-04-24T14:57:07;21.10;36.30
49549;DHT22;35450;44.518;7.466;2023-04-24T15:00:11;21.10;35.40
49549;DHT22;35450;44.518;7.466;2023-04-24T15:03:16;21.20;35.20
49549;DHT22;35450;44.518;7.466;2023-04-24T15:06:21;21.30;35.70
49549;DHT22;35450;44.518;7.466;2023-04-24T15:09:25;21.40;35.20
49549;DHT22;35450;44.518;7.466;2023-04-24T15:12:30;21.30;34.60
49549;DHT22;35450;44.518;7.466;2023-04-24T15:15:34;21.40;34.40
49549;DHT22;35450;44.518;7.466;2023-04-24T15:18:39;21.40;35.00
49549;DHT22;35450;44.518;7.466;2023-04-24T15:21:44;21.50;34.10
49549;DHT22;35450;44.518;7.466;2023-04-24T15:24:48;21.60;36.00
49549;DHT22;35450;44.518;7.466;2023-04-24T15:27:51;21.90;34.80
49549;DHT22;35450;44.518;7.466;2023-04-24T15:30:55;21.80;32.30
49549;DHT22;35450;44.518;7.466;2023-04-24T15:33:59;21.90;33.90
49549;DHT22;35450;44.518;7.466;2023-04-24T15:37:04;21.90;32.90
49549;DHT22;35450;44.518;7.466;2023-04-24T15:40:08;21.80;33.80
49549;DHT22;35450;44.518;7.466;2023-04-24T15:43:14;21.60;33.40
49549;DHT22;35450;44.518;7.466;2023-04-24T15:46:19;21.40;33.80
49549;DHT22;35450;44.518;7.466;2023-04-24T15:49:24;21.30;34.10
49549;DHT22;35450;44.518;7.466;2023-04-24T15:52:29;21.50;33.80
49549;DHT22;35450;44.518;7.466;2023-04-24T15:55:33;21.50;33.50
49549;DHT22;35450;44.518;7.466;2023-04-24T15:58:37;21.40;33.70
49549;DHT22;35450;44.518;7.466;2023-04-24T16:01:41;21.20;34.00
49549;DHT22;35450;44.518;7.466;2023-04-24T16:04:46;21.10;34.40
49549;DHT22;35450;44.518;7.466;2023-04-24T16:07:50;21.00;33.10
49549;DHT22;35450;44.518;7.466;2023-04-24T16:10:54;20.90;33.60
49549;DHT22;35450;44.518;7.466;2023-04-24T16:13:59;22.20;34.60
49549;DHT22;35450;44.518;7.466;2023-04-24T16:17:03;24.30;31.80
49549;DHT22;35450;44.518;7.466;2023-04-24T16:20:08;25.70;30.30
49549;DHT22;35450;44.518;7.466;2023-04-24T16:23:12;26.90;30.00
49549;DHT22;35450;44.518;7.466;2023-04-24T16:26:18;27.40;29.60
49549;DHT22;35450;44.518;7.466;2023-04-24T16:29:21;26.90;28.80
49549;DHT22;35450;44.518;7.466;2023-04-24T16:32:26;25.30;29.10
49549;DHT22;35450;44.518;7.466;2023-04-24T16:35:30;23.90;29.50
49549;DHT22;35450;44.518;7.466;2023-04-24T16:38:34;22.90;31.10
49549;DHT22;35450;44.518;7.466;2023-04-24T16:41:38;22.40;31.30
49549;DHT22;35450;44.518;7.466;2023-04-24T16:44:43;22.10;31.30
49549;DHT22;35450;44.518;7.466;2023-04-24T16:47:47;21.90;31.80
49549;DHT22;35450;44.518;7.466;2023-04-24T16:50:51;21.70;31.20
49549;DHT22;35450;44.518;7.466;2023-04-24T16:53:55;21.40;31.90
49549;DHT22;35450;44.518;7.466;2023-04-24T16:56:59;21.10;31.50
49549;DHT22;35450;44.518;7.466;2023-04-24T17:00:04;20.80;33.00
49549;DHT22;35450;44.518;7.466;2023-04-24T17:03:10;20.60;33.70
49549;DHT22;35450;44.518;7.466;2023-04-24T17:06:14;20.40;33.50
49549;DHT22;35450;44.518;7.466;2023-04-24T17:09:18;20.60;33.30
49549;DHT22;35450;44.518;7.466;2023-04-24T17:12:23;20.60;33.20
49549;DHT22;35450;44.518;7.466;2023-04-24T17:15:27;20.70;34.00
49549;DHT22;35450;44.518;7.466;2023-04-24T17:18:31;20.70;33.60
49549;DHT22;35450;44.518;7.466;2023-04-24T17:21:35;20.60;34.20
49549;DHT22;35450;44.518;7.466;2023-04-24T17:24:39;20.50;35.10
49549;DHT22;35450;44.518;7.466;2023-04-24T17:27:44;20.30;34.00
49549;DHT22;35450;44.518;7.466;2023-04-24T17:30:48;20.20;35.00
49549;DHT22;35450;44.518;7.466;2023-04-24T17:33:52;20.00;35.20
49549;DHT22;35450;44.518;7.466;2023-04-24T17:36:56;19.90;33.70
49549;DHT22;35450;44.518;7.466;2023-04-24T17:40:00;19.80;33.50
49549;DHT22;35450;44.518;7.466;2023-04-24T17:43:04;19.80;33.30
49549;DHT22;35450;44.518;7.466;2023-04-24T17:46:08;19.70;33.60
49549;DHT22;35450;44.518;7.466;2023-04-24T17:49:12;19.60;33.80
49549;DHT22;35450;44.518;7.466;2023-04-24T17:52:16;19.50;33.70
49549;DHT22;35450;44.518;7.466;2023-04-24T17:55:20;19.50;32.50
49549;DHT22;35450;44.518;7.466;2023-04-24T17:58:24;19.50;33.70
49549;DHT22;35450;44.518;7.466;2023-04-24T18:01:28;19.40;33.60
49549;DHT22;35450;44.518;7.466;2023-04-24T18:04:32;19.40;34.10
49549;DHT22;35450;44.518;7.466;2023-04-24T18:07:36;19.40;34.00
49549;DHT22;35450;44.518;7.466;2023-04-24T18:10:41;19.40;35.70
49549;DHT22;35450;44.518;7.466;2023-04-24T18:13:46;19.30;36.80
49549;DHT22;35450;44.518;7.466;2023-04-24T18:16:51;19.30;37.20
49549;DHT22;35450;44.518;7.466;2023-04-24T18:19:55;19.30;37.70
49549;DHT22;35450;44.518;7.466;2023-04-24T18:22:59;19.30;38.20
49549;DHT22;35450;44.518;7.466;2023-04-24T18:26:03;19.20;38.20
49549;DHT22;35450;44.518;7.466;2023-04-24T18:29:07;19.00;38.90
49549;DHT22;35450;44.518;7.466;2023-04-24T18:32:11;18.80;38.30
49549;DHT22;35450;44.518;7.466;2023-04-24T18:35:16;18.70;39.10
49549;DHT22;35450;44.518;7.466;2023-04-24T18:38:20;18.70;39.00
49549;DHT22;35450;44.518;7.466;2023-04-24T18:41:24;18.70;39.80
49549;DHT22;35450;44.518;7.466;2023-04-24T18:44:28;18.50;40.60
49549;DHT22;35450;44.518;7.466;2023-04-24T18:47:32;18.40;41.90
49549;DHT22;35450;44.518;7.466;2023-04-24T18:50:36;18.20;41.30
49549;DHT22;35450;44.518;7.466;2023-04-24T18:53:41;17.90;40.30
49549;DHT22;35450;44.518;7.466;2023-04-24T18:56:45;17.60;40.40
49549;DHT22;35450;44.518;7.466;2023-04-24T18:59:49;17.60;40.70
49549;DHT22;35450;44.518;7.466;2023-04-24T19:02:53;17.60;40.40
49549;DHT22;35450;44.518;7.466;2023-04-24T19:05:57;17.60;40.40
49549;DHT22;35450;44.518;7.466;2023-04-24T19:09:01;17.50;41.70
49549;DHT22;35450;44.518;7.466;2023-04-24T19:12:05;17.50;42.10
49549;DHT22;35450;44.518;7.466;2023-04-24T19:15:10;17.40;42.00
49549;DHT22;35450;44.518;7.466;2023-04-24T19:18:14;17.30;42.10
49549;DHT22;35450;44.518;7.466;2023-04-24T19:21:19;17.30;43.20
49549;DHT22;35450;44.518;7.466;2023-04-24T19:24:23;17.30;42.00
49549;DHT22;35450;44.518;7.466;2023-04-24T19:27:28;17.10;42.20
49549;DHT22;35450;44.518;7.466;2023-04-24T19:30:33;17.10;42.50
49549;DHT22;35450;44.518;7.466;2023-04-24T19:33:38;17.00;43.00
49549;DHT22;35450;44.518;7.466;2023-04-24T19:36:42;17.00;42.70
49549;DHT22;35450;44.518;7.466;2023-04-24T19:39:46;16.90;43.30